createdAt,value
2022-10-24T00:07:58.501Z,12.98
2022-10-24T00:23:01.443Z,12.91
2022-10-24T00:38:04.646Z,12.94
2022-10-24T00:53:09.264Z,12.83
2022-10-24T01:08:42.735Z,12.73
2022-10-24T01:24:02.109Z,12.71
2022-10-24T01:39:13.788Z,12.69
2022-10-24T01:54:17.326Z,12.59
2022-10-24T02:09:21.593Z,12.41
2022-10-24T02:24:37.305Z,12.36
2022-10-24T02:39:42.804Z,12.30
2022-10-24T02:54:45.787Z,12.28
2022-10-24T03:09:48.842Z,12.28
2022-10-24T03:24:55.575Z,12.26
2022-10-24T03:39:59.016Z,12.24
2022-10-24T03:55:02.140Z,12.27
2022-10-24T04:10:06.632Z,12.30
2022-10-24T04:25:10.091Z,12.39
2022-10-24T04:40:13.511Z,12.41
2022-10-24T04:55:16.598Z,12.49
2022-10-24T05:10:19.667Z,12.58
2022-10-24T05:25:23.655Z,12.65
2022-10-24T05:40:26.867Z,12.71
2022-10-24T05:55:31.469Z,12.69
2022-10-24T06:10:35.650Z,12.70
2022-10-24T06:25:43.642Z,12.71
2022-10-24T06:40:46.725Z,12.77
2022-10-24T06:55:50.535Z,12.90
2022-10-24T07:10:53.782Z,13.11
2022-10-24T07:26:05.258Z,13.28
2022-10-24T07:41:08.535Z,13.38
2022-10-24T07:56:15.952Z,13.47
2022-10-24T08:11:23.162Z,13.60
2022-10-24T08:26:27.045Z,13.78
2022-10-24T08:41:38.423Z,13.74
2022-10-24T08:56:42.311Z,13.73
2022-10-24T09:12:03.435Z,14.06
2022-10-24T09:27:14.713Z,14.42
2022-10-24T09:42:22.856Z,14.46
2022-10-24T09:57:28.076Z,14.54
2022-10-24T10:12:41.139Z,15.01
2022-10-24T10:27:51.273Z,15.33
2022-10-24T10:43:19.718Z,15.22
2022-10-24T10:58:22.612Z,15.29
2022-10-24T11:13:43.835Z,15.37
2022-10-24T11:29:15.298Z,15.67
2022-10-24T11:44:38.580Z,15.93
2022-10-24T11:59:43.384Z,16.07
2022-10-24T12:14:58.568Z,16.18
2022-10-24T12:30:19.166Z,16.23
2022-10-24T12:45:31.808Z,16.33
2022-10-24T13:00:39.725Z,16.55
2022-10-24T13:16:07.789Z,16.51
2022-10-24T13:31:16.802Z,16.57
2022-10-24T13:46:35.631Z,16.61
2022-10-24T14:01:41.546Z,16.42
2022-10-24T14:16:45.078Z,16.39
2022-10-24T14:31:57.030Z,16.32
2022-10-24T14:47:04.271Z,16.36
2022-10-24T15:02:42.852Z,16.40
2022-10-24T15:17:47.865Z,16.38
2022-10-24T15:32:52.461Z,16.01
2022-10-24T15:47:55.944Z,15.63
2022-10-24T16:03:01.535Z,15.31
2022-10-24T16:18:06.279Z,15.03
2022-10-24T16:33:20.577Z,14.84
2022-10-24T16:48:24.648Z,14.70
2022-10-24T17:03:28.320Z,14.60
2022-10-24T17:18:31.809Z,14.50
2022-10-24T17:33:37.212Z,14.46
2022-10-24T17:48:40.782Z,14.56
2022-10-24T18:03:44.770Z,14.73
2022-10-24T18:18:49.212Z,14.68
2022-10-24T18:33:53.424Z,14.76
2022-10-24T18:48:56.963Z,14.84
2022-10-24T19:04:06.898Z,15.00
2022-10-24T19:19:11.808Z,15.31
2022-10-24T19:34:16.866Z,15.57
2022-10-24T19:49:20.041Z,15.61
2022-10-24T20:04:23.396Z,15.63
2022-10-24T20:19:27.335Z,15.63
2022-10-24T20:34:31.496Z,15.79
2022-10-24T20:49:34.805Z,15.82
2022-10-24T21:04:38.015Z,15.88
2022-10-24T21:19:41.322Z,15.82
2022-10-24T21:34:46.904Z,15.70
2022-10-24T21:49:51.266Z,15.76
2022-10-24T22:04:54.479Z,15.81
2022-10-24T22:19:57.830Z,15.72
2022-10-24T22:35:01.048Z,15.73
2022-10-24T22:50:14.592Z,15.85
2022-10-24T23:05:34.455Z,15.95
2022-10-24T23:20:43.150Z,15.96
2022-10-24T23:35:48.443Z,15.92
2022-10-24T23:50:59.970Z,15.90
